Time;durP1;ratioP1;P1;durP2;ratioP2;P2;SDS_P1;SDS_P2;PMS_P1;PMS_P2;Temp;Humidity;BMP_temperature;BMP_pressure;BME280_temperature;BME280_humidity;BME280_pressure;Samples;Min_cycle;Max_cycle;Signal;HPM_P1;HPM_P2
2022/03/29 00:02:15;;;;;;;19.98;13.10;;;;;;;7.80;100.00;100540.38;5045469;28;20030;-54
2022/03/29 00:04:41;;;;;;;17.20;13.20;;;;;;;7.97;100.00;100564.16;5045286;28;20348;-55
2022/03/29 00:07:06;;;;;;;20.90;12.20;;;;;;;7.96;100.00;100562.44;5046708;28;20028;-55
2022/03/29 00:09:31;;;;;;;29.33;13.23;;;;;;;7.88;100.00;100542.69;5047286;28;20134;-54
2022/03/29 00:11:57;;;;;;;22.60;12.90;;;;;;;7.98;100.00;100555.38;5045691;28;20036;-56
2022/03/29 00:14:22;;;;;;;24.67;12.60;;;;;;;8.02;100.00;100563.97;5045973;28;20047;-55
2022/03/29 00:16:47;;;;;;;23.90;13.35;;;;;;;7.99;100.00;100546.63;5046742;28;20031;-55
2022/03/29 00:19:13;;;;;;;19.63;13.52;;;;;;;8.11;100.00;100556.63;5027945;28;20020;-54
2022/03/29 00:21:39;;;;;;;22.45;14.63;;;;;;;8.00;100.00;100537.88;5027679;28;20059;-55
2022/03/29 00:24:04;;;;;;;18.83;13.70;;;;;;;8.13;100.00;100546.97;5046324;28;20935;-55
2022/03/29 00:26:30;;;;;;;18.85;13.32;;;;;;;8.18;100.00;100541.53;5045331;28;20032;-55
2022/03/29 00:28:55;;;;;;;21.15;14.88;;;;;;;8.21;100.00;100542.28;5045272;28;20020;-54
2022/03/29 00:31:21;;;;;;;29.65;17.40;;;;;;;8.25;100.00;100534.34;5046451;28;20039;-54
2022/03/29 00:33:47;;;;;;;24.95;15.98;;;;;;;8.27;100.00;100541.22;5046389;28;20856;-54
2022/03/29 00:36:13;;;;;;;31.83;16.42;;;;;;;8.33;100.00;100535.78;5045934;28;20851;-55
2022/03/29 00:38:38;;;;;;;26.48;16.88;;;;;;;8.38;100.00;100527.75;5046554;28;20031;-55
2022/03/29 00:41:04;;;;;;;21.83;15.48;;;;;;;8.41;100.00;100533.72;5045167;28;20043;-54
2022/03/29 00:43:30;;;;;;;23.95;15.90;;;;;;;8.42;100.00;100529.31;5046758;28;20847;-55
2022/03/29 00:45:56;;;;;;;31.80;16.52;;;;;;;8.42;100.00;100524.94;5045952;28;20871;-55
2022/03/29 00:48:21;;;;;;;31.67;16.33;;;;;;;8.10;100.00;100470.34;5044962;28;20065;-54
2022/03/29 00:50:47;;;;;;;21.92;14.43;;;;;;;8.43;100.00;100526.66;5027211;28;20070;-54
2022/03/29 00:53:13;;;;;;;30.90;16.10;;;;;;;8.39;100.00;100517.19;5028841;28;20031;-55
2022/03/29 00:55:39;;;;;;;26.50;14.65;;;;;;;8.41;100.00;100517.16;5045284;28;20033;-55
2022/03/29 00:58:06;;;;;;;25.95;14.85;;;;;;;8.38;100.00;100509.44;5045793;28;20842;-55
2022/03/29 01:00:33;;;;;;;18.90;14.05;;;;;;;8.16;100.00;100476.19;5044830;28;20031;-55
2022/03/29 01:03:03;;;;;;;24.42;15.13;;;;;;;7.95;100.00;100450.84;5045021;28;20033;-55
2022/03/29 01:05:29;;;;;;;20.98;15.95;;;;;;;8.35;100.00;100512.16;5044973;28;20873;-55
2022/03/29 01:07:56;;;;;;;23.85;15.27;;;;;;;8.31;100.00;100508.81;5044556;28;20028;-55
2022/03/29 01:10:22;;;;;;;24.77;17.08;;;;;;;8.28;100.00;100505.44;5044744;28;20082;-55
2022/03/29 01:12:48;;;;;;;25.08;16.88;;;;;;;8.32;100.00;100500.03;5044869;28;20049;-54
2022/03/29 01:15:13;;;;;;;23.70;16.58;;;;;;;8.33;100.00;100503.50;5045205;28;20908;-55
2022/03/29 01:17:41;;;;;;;26.65;15.23;;;;;;;8.32;100.00;100502.66;5044799;28;20864;-54
2022/03/29 01:20:29;;;;;;;23.83;16.95;;;;;;;8.32;100.00;100497.41;5044543;28;20030;-54
2022/03/29 01:22:56;;;;;;;34.40;17.42;;;;;;;8.36;100.00;100492.91;5044914;28;20801;-53
2022/03/29 01:25:34;;;;;;;26.90;17.70;;;;;;;8.25;100.00;100463.69;5047867;28;20096;-55
2022/03/29 01:28:01;;;;;;;25.55;16.30;;;;;;;8.42;100.00;100479.56;5048862;28;20032;-54
2022/03/29 01:30:27;;;;;;;27.45;17.10;;;;;;;8.42;100.00;100476.94;5048930;28;20027;-56
2022/03/29 01:32:53;;;;;;;32.00;18.45;;;;;;;8.47;100.00;100475.88;5048783;28;20028;-56
2022/03/29 01:35:24;;;;;;;21.45;17.20;;;;;;;8.51;100.00;100473.97;5048527;28;20912;-55
2022/03/29 01:37:50;;;;;;;27.83;18.73;;;;;;;8.54;100.00;100472.09;5047998;28;20025;-55
2022/03/29 01:40:19;;;;;;;25.48;17.90;;;;;;;8.59;100.00;100474.50;5048735;28;20020;-56
2022/03/29 01:42:53;;;;;;;23.35;17.30;;;;;;;8.58;100.00;100476.25;5048185;28;20077;-54
2022/03/29 01:45:20;;;;;;;24.33;18.08;;;;;;;8.58;100.00;100470.19;5048142;28;20031;-55
2022/03/29 01:47:46;;;;;;;29.48;17.52;;;;;;;8.54;100.00;100469.47;5048041;28;20129;-55
2022/03/29 01:50:13;;;;;;;21.48;16.05;;;;;;;8.55;100.00;100467.72;5048057;28;20888;-54
2022/03/29 01:52:40;;;;;;;32.67;18.65;;;;;;;8.55;100.00;100459.84;5047938;28;20028;-55
2022/03/29 01:55:07;;;;;;;28.88;17.10;;;;;;;8.56;100.00;100458.91;5048076;28;20059;-55
2022/03/29 01:57:32;;;;;;;25.38;18.55;;;;;;;8.55;100.00;100454.63;5047724;28;20094;-55
2022/03/29 02:02:41;;;;;;;30.88;18.00;;;;;;;8.58;100.00;100446.63;5049888;28;20918;-54
2022/03/29 02:05:07;;;;;;;28.23;19.40;;;;;;;8.58;100.00;100442.22;5047891;28;20063;-56
2022/03/29 02:07:32;;;;;;;32.50;17.92;;;;;;;8.60;100.00;100439.56;5057088;28;20931;-55
2022/03/29 02:09:58;;;;;;;27.13;18.08;;;;;;;8.59;100.00;100437.84;5053774;28;20863;-55
2022/03/29 02:12:23;;;;;;;30.33;18.80;;;;;;;8.49;100.00;100407.72;5068205;28;20213;-54
2022/03/29 02:14:49;;;;;;;31.90;18.25;;;;;;;8.54;100.00;100424.09;5067546;28;20026;-55
2022/03/29 02:17:14;;;;;;;31.55;18.40;;;;;;;8.55;100.00;100412.72;5069189;28;20063;-55
2022/03/29 02:19:39;;;;;;;23.55;16.88;;;;;;;8.57;100.00;100418.72;5068890;28;20802;-55
2022/03/29 02:22:05;;;;;;;29.95;18.55;;;;;;;8.55;100.00;100416.16;5068134;28;20028;-54
2022/03/29 02:24:30;;;;;;;33.05;18.20;;;;;;;8.25;100.00;100359.81;5069038;28;20880;-55
2022/03/29 02:26:56;;;;;;;30.40;18.00;;;;;;;8.59;100.00;100411.66;5067894;28;20074;-55
2022/03/29 02:29:21;;;;;;;28.95;18.50;;;;;;;8.59;100.00;100416.88;5070054;28;20032;-56
2022/03/29 02:31:46;;;;;;;32.80;17.73;;;;;;;8.57;100.00;100400.41;5049308;28;20138;-56
2022/03/29 02:34:12;;;;;;;29.80;18.02;;;;;;;8.53;100.00;100396.19;5051534;28;20028;-55
2022/03/29 02:36:37;;;;;;;27.50;18.00;;;;;;;8.54;100.00;100398.78;5067003;28;20045;-56
2022/03/29 02:39:02;;;;;;;30.00;17.95;;;;;;;8.56;100.00;100393.44;5069919;28;20919;-55
2022/03/29 02:41:28;;;;;;;26.50;17.67;;;;;;;8.56;100.00;100396.06;5069441;28;20030;-55
2022/03/29 02:43:53;;;;;;;30.50;17.02;;;;;;;8.57;100.00;100395.16;5067339;28;20024;-54
2022/03/29 02:46:19;;;;;;;31.80;17.30;;;;;;;8.50;100.00;100381.47;5067301;28;20024;-55
2022/03/29 02:48:45;;;;;;;25.33;16.58;;;;;;;8.49;100.00;100371.06;5066782;28;20023;-55
2022/03/29 02:51:10;;;;;;;24.48;16.63;;;;;;;8.49;100.00;100384.13;5067081;28;20368;-54
2022/03/29 02:53:35;;;;;;;24.55;17.52;;;;;;;8.44;100.00;100373.88;5067264;28;20063;-55
2022/03/29 02:56:01;;;;;;;27.17;18.25;;;;;;;8.42;100.00;100366.97;5066651;28;20941;-55
2022/03/29 02:58:26;;;;;;;28.70;17.70;;;;;;;8.47;100.00;100375.50;5067807;28;20031;-53
2022/03/29 03:00:52;;;;;;;26.30;18.52;;;;;;;8.48;100.00;100377.22;5066808;28;20260;-54
2022/03/29 03:03:17;;;;;;;21.25;17.55;;;;;;;8.47;100.00;100380.75;5048402;28;20019;-54
2022/03/29 03:05:43;;;;;;;22.65;16.50;;;;;;;8.15;100.00;100338.41;5066578;28;20024;-55
2022/03/29 03:08:08;;;;;;;30.05;18.83;;;;;;;8.37;100.00;100374.19;5067852;28;20063;-55
2022/03/29 03:10:34;;;;;;;25.17;17.95;;;;;;;8.46;100.00;100384.28;5066253;28;20035;-54
2022/03/29 03:12:59;;;;;;;24.77;17.80;;;;;;;8.42;100.00;100374.84;5066323;28;20080;-53
2022/03/29 03:15:25;;;;;;;24.45;18.45;;;;;;;8.43;100.00;100373.94;5067364;28;20909;-55
2022/03/29 03:17:52;;;;;;;28.25;18.23;;;;;;;8.42;100.00;100377.47;5049842;28;20027;-54
2022/03/29 03:20:18;;;;;;;28.95;18.83;;;;;;;8.43;100.00;100384.41;5067873;28;20883;-55
2022/03/29 03:22:44;;;;;;;24.08;17.00;;;;;;;8.42;100.00;100387.94;5067001;28;20066;-55
2022/03/29 03:25:10;;;;;;;23.45;18.08;;;;;;;8.37;100.00;100375.06;5066247;28;20903;-54
2022/03/29 03:27:35;;;;;;;33.13;18.75;;;;;;;8.40;100.00;100368.81;5066221;28;20043;-55
2022/03/29 03:30:02;;;;;;;32.47;19.13;;;;;;;8.40;100.00;100372.31;5066615;28;20019;-53
2022/03/29 03:32:28;;;;;;;34.65;19.83;;;;;;;8.36;100.00;100368.09;5066771;28;20109;-54
2022/03/29 03:34:53;;;;;;;24.35;18.33;;;;;;;8.33;100.00;100367.38;5066246;28;20020;-54
2022/03/29 03:37:19;;;;;;;29.67;19.95;;;;;;;8.26;100.00;100360.66;5067534;28;20038;-55
2022/03/29 03:39:44;;;;;;;29.70;19.40;;;;;;;8.28;100.00;100354.47;5050058;28;20020;-54
2022/03/29 03:42:10;;;;;;;25.48;18.55;;;;;;;8.28;100.00;100356.22;5067715;28;20027;-54
2022/03/29 03:44:36;;;;;;;31.88;20.52;;;;;;;8.26;100.00;100352.81;5067460;28;20131;-55
2022/03/29 03:47:02;;;;;;;25.88;18.65;;;;;;;8.15;100.00;100327.94;5065903;28;20038;-55
2022/03/29 03:49:28;;;;;;;30.83;18.23;;;;;;;8.19;100.00;100342.59;5047485;28;20936;-55
2022/03/29 03:51:53;;;;;;;22.90;18.95;;;;;;;8.13;100.00;100345.47;5066178;28;20036;-55
2022/03/29 03:54:19;;;;;;;23.77;17.75;;;;;;;8.09;100.00;100332.56;5068833;28;20024;-55
2022/03/29 03:56:45;;;;;;;28.38;18.75;;;;;;;7.84;100.00;100290.84;5067710;28;20135;-55
2022/03/29 03:59:10;;;;;;;31.27;20.77;;;;;;;8.03;100.00;100317.97;5067653;28;20016;-55
2022/03/29 04:01:35;;;;;;;25.80;19.83;;;;;;;8.07;100.00;100329.16;5066645;28;20034;-55
2022/03/29 04:04:01;;;;;;;33.63;21.05;;;;;;;7.89;100.00;100299.38;5065799;28;20035;-55
2022/03/29 04:06:26;;;;;;;34.03;20.30;;;;;;;8.03;100.00;100328.44;5066422;28;20915;-54
2022/03/29 04:08:52;;;;;;;33.33;21.15;;;;;;;8.00;100.00;100319.88;5066505;28;20090;-55
2022/03/29 04:11:18;;;;;;;32.90;21.02;;;;;;;7.99;100.00;100310.31;5067324;28;20084;-55
2022/03/29 04:13:44;;;;;;;33.33;21.30;;;;;;;7.83;100.00;100283.94;5066006;28;20032;-54
2022/03/29 04:16:09;;;;;;;31.13;20.80;;;;;;;7.77;100.00;100283.34;5066782;28;20090;-54
2022/03/29 04:18:35;;;;;;;32.47;19.38;;;;;;;7.92;100.00;100309.72;5066118;28;20081;-56
2022/03/29 04:21:05;;;;;;;29.27;21.02;;;;;;;7.87;100.00;100309.06;5066482;28;20080;-55
2022/03/29 04:23:30;;;;;;;26.60;19.13;;;;;;;7.92;100.00;100320.16;5065568;28;20027;-55
2022/03/29 04:25:57;;;;;;;34.08;21.27;;;;;;;7.75;100.00;100296.47;5066090;28;20027;-54
2022/03/29 04:28:23;;;;;;;32.40;20.75;;;;;;;7.68;100.00;100284.53;5065590;28;20135;-54
2022/03/29 04:30:48;;;;;;;28.48;19.65;;;;;;;7.91;100.00;100318.47;5065194;28;20035;-55
2022/03/29 04:33:14;;;;;;;32.40;20.10;;;;;;;7.92;100.00;100314.94;5066179;28;20032;-55
2022/03/29 04:35:39;;;;;;;40.28;21.77;;;;;;;7.88;100.00;100313.34;5065490;28;20074;-54
2022/03/29 04:38:05;;;;;;;29.75;20.88;;;;;;;7.86;100.00;100314.34;5065599;28;20090;-54
2022/03/29 04:40:30;;;;;;;34.47;21.85;;;;;;;7.83;100.00;100310.09;5066935;28;20031;-55
2022/03/29 04:42:56;;;;;;;35.25;21.27;;;;;;;7.83;100.00;100306.63;5065652;28;20448;-54
2022/03/29 04:45:21;;;;;;;36.20;22.38;;;;;;;7.70;100.00;100290.56;5049137;28;20859;-55
2022/03/29 04:47:47;;;;;;;38.58;22.42;;;;;;;7.76;100.00;100303.41;5047441;28;20063;-55
2022/03/29 04:50:14;;;;;;;30.85;21.38;;;;;;;7.76;100.00;100298.16;5066669;28;20024;-55
2022/03/29 04:52:44;;;;;;;40.72;21.42;;;;;;;7.75;100.00;100295.59;5065340;28;20027;-54
2022/03/29 04:55:10;;;;;;;36.20;22.75;;;;;;;7.71;100.00;100300.97;5064868;28;20960;-54
2022/03/29 04:57:35;;;;;;;39.33;21.52;;;;;;;7.63;100.00;100281.28;5065017;28;20136;-55
2022/03/29 05:00:01;;;;;;;29.20;22.55;;;;;;;7.67;100.00;100290.69;5066565;28;20829;-55
2022/03/29 05:02:26;;;;;;;29.17;21.75;;;;;;;7.61;100.00;100283.94;5066264;28;20142;-54
2022/03/29 05:04:52;;;;;;;34.90;23.00;;;;;;;7.60;100.00;100289.25;5069008;28;20031;-54
2022/03/29 05:07:17;;;;;;;30.90;22.40;;;;;;;7.55;100.00;100278.09;5070676;28;20032;-53
2022/03/29 05:09:43;;;;;;;38.55;24.15;;;;;;;7.54;100.00;100279.00;5068531;28;20080;-55
2022/03/29 05:12:09;;;;;;;30.77;22.25;;;;;;;7.10;100.00;100207.56;5070009;28;20027;-54
2022/03/29 05:14:36;;;;;;;29.30;23.23;;;;;;;7.42;100.00;100269.03;5069117;28;20036;-55
2022/03/29 05:17:02;;;;;;;48.90;23.58;;;;;;;7.44;100.00;100265.44;5069874;28;20028;-55
2022/03/29 05:19:27;;;;;;;43.80;24.75;;;;;;;7.46;100.00;100268.00;5068323;28;20023;-55
2022/03/29 05:21:52;;;;;;;32.25;21.95;;;;;;;7.46;100.00;100273.25;5068551;28;20126;-55
2022/03/29 05:24:18;;;;;;;27.85;22.95;;;;;;;7.43;100.00;100268.13;5069545;28;20024;-55
2022/03/29 05:26:44;;;;;;;33.35;23.90;;;;;;;7.38;100.00;100273.53;5068655;28;20039;-55
2022/03/29 05:29:11;;;;;;;32.58;22.73;;;;;;;7.35;100.00;100281.50;5068377;28;20027;-54
2022/03/29 05:31:37;;;;;;;31.33;21.45;;;;;;;7.25;100.00;100263.63;5069594;28;20035;-54
2022/03/29 05:34:02;;;;;;;30.13;22.02;;;;;;;7.14;100.00;100251.81;5067906;28;20423;-54
2022/03/29 05:36:28;;;;;;;27.95;21.08;;;;;;;7.22;100.00;100271.59;5068904;28;20032;-53
2022/03/29 05:38:54;;;;;;;38.30;23.48;;;;;;;7.18;100.00;100269.09;5068878;28;20640;-53
2022/03/29 05:41:20;;;;;;;35.40;26.38;;;;;;;7.18;100.00;100283.91;5069801;28;20043;-54
2022/03/29 05:43:48;;;;;;;41.40;27.40;;;;;;;7.08;100.00;100267.75;5069172;28;20463;-54
2022/03/29 05:48:59;;;;;;;29.27;23.00;;;;;;;7.05;100.00;100256.56;5070200;28;20090;-55
2022/03/29 05:51:24;;;;;;;30.33;22.10;;;;;;;7.03;100.00;100259.22;5070839;28;20139;-55
2022/03/29 05:53:52;;;;;;;37.83;24.02;;;;;;;7.06;100.00;100264.31;5070091;28;20034;-55
2022/03/29 05:56:18;;;;;;;34.15;22.63;;;;;;;7.06;100.00;100263.50;5064556;28;20891;-55
2022/03/29 05:58:43;;;;;;;33.95;24.13;;;;;;;7.02;100.00;100257.53;5048745;28;20904;-54
2022/03/29 06:01:09;;;;;;;44.03;23.17;;;;;;;7.08;100.00;100267.75;5048567;28;20032;-54
2022/03/29 06:03:35;;;;;;;34.10;23.15;;;;;;;7.13;100.00;100283.25;5048958;28;20134;-55
2022/03/29 06:06:00;;;;;;;32.83;23.52;;;;;;;7.06;100.00;100258.25;5048957;28;20031;-55
2022/03/29 06:08:26;;;;;;;32.78;23.88;;;;;;;7.14;100.00;100264.03;5048655;28;20040;-54
2022/03/29 06:10:53;;;;;;;31.05;23.67;;;;;;;7.20;100.00;100271.63;5048668;28;20541;-55
2022/03/29 06:13:18;;;;;;;33.80;23.33;;;;;;;7.25;100.00;100269.69;5050024;28;20031;-56
2022/03/29 06:15:43;;;;;;;38.47;24.83;;;;;;;7.27;100.00;100267.88;5048151;28;20020;-55
2022/03/29 06:18:09;;;;;;;37.05;25.13;;;;;;;7.32;100.00;100259.84;5050526;28;20032;-54
2022/03/29 06:20:34;;;;;;;38.92;25.67;;;;;;;7.32;100.00;100252.03;5048617;28;20035;-54
2022/03/29 06:23:00;;;;;;;41.90;25.17;;;;;;;7.34;100.00;100251.03;5050388;28;20023;-54
2022/03/29 06:25:25;;;;;;;37.20;26.35;;;;;;;7.01;100.00;100187.03;5048517;28;20055;-54
2022/03/29 06:27:51;;;;;;;35.30;26.95;;;;;;;7.39;100.00;100240.41;5048390;28;20031;-54
2022/03/29 06:30:16;;;;;;;35.42;27.10;;;;;;;7.42;100.00;100245.53;5046170;28;20030;-53
2022/03/29 06:32:52;;;;;;;30.77;25.27;;;;;;;7.46;100.00;100237.50;5047182;28;20917;-51
2022/03/29 06:35:26;;;;;;;38.10;26.05;;;;;;;7.38;100.00;100215.19;5049109;28;20032;-51
2022/03/29 06:37:53;;;;;;;36.28;26.33;;;;;;;7.49;100.00;100236.53;5047100;28;20036;-55
2022/03/29 06:40:20;;;;;;;42.03;26.02;;;;;;;7.54;100.00;100252.84;5047841;28;20031;-53
2022/03/29 06:42:46;;;;;;;37.78;24.63;;;;;;;7.50;100.00;100246.06;5047620;28;20032;-55
2022/03/29 06:45:11;;;;;;;34.70;27.30;;;;;;;7.60;100.00;100248.22;5046369;28;20927;-54
2022/03/29 06:47:37;;;;;;;41.40;27.80;;;;;;;7.59;100.00;100227.41;5047562;28;20168;-55
2022/03/29 06:50:04;;;;;;;41.83;29.13;;;;;;;7.74;100.00;100252.09;5049876;28;20028;-55
2022/03/29 06:52:40;;;;;;;38.08;26.98;;;;;;;7.77;100.00;100263.28;5048531;28;20024;-54
2022/03/29 06:55:08;;;;;;;39.47;27.42;;;;;;;7.73;100.00;100246.00;5047554;28;20039;-54
2022/03/29 06:57:33;;;;;;;33.80;25.13;;;;;;;7.97;100.00;100284.22;5046252;28;20051;-55
2022/03/29 06:59:58;;;;;;;37.58;24.95;;;;;;;8.10;100.00;100255.78;5045707;28;20903;-55
2022/03/29 07:02:24;;;;;;;37.88;26.05;;;;;;;7.90;100.00;100219.13;5046786;28;20038;-54
2022/03/29 07:04:51;;;;;;;64.05;30.13;;;;;;;8.19;100.00;100266.69;5045747;28;20131;-55
2022/03/29 07:07:16;;;;;;;34.47;25.70;;;;;;;8.25;100.00;100264.75;5047065;28;20032;-54
2022/03/29 07:12:25;;;;;;;33.08;26.42;;;;;;;8.20;100.00;100242.22;5048304;28;20818;-55
2022/03/29 07:14:50;;;;;;;32.83;24.40;;;;;;;8.28;100.00;100238.44;5048131;28;20068;-54
2022/03/29 07:17:17;;;;;;;31.65;25.48;;;;;;;8.42;100.00;100257.88;5046550;28;20024;-55
2022/03/29 07:19:43;;;;;;;37.42;26.00;;;;;;;8.50;100.00;100268.88;5028666;28;20078;-55
2022/03/29 07:22:08;;;;;;;37.40;26.55;;;;;;;8.57;100.00;100274.69;5045253;28;20881;-54
2022/03/29 07:24:34;;;;;;;34.30;26.77;;;;;;;8.61;100.00;100271.88;5046830;28;20092;-55
2022/03/29 07:27:00;;;;;;;35.47;24.88;;;;;;;8.59;100.00;100254.50;5026912;28;20548;-54
2022/03/29 07:29:26;;;;;;;33.85;25.58;;;;;;;8.80;100.00;100277.13;5046181;28;20028;-55
2022/03/29 07:31:52;;;;;;;35.55;26.90;;;;;;;8.95;100.00;100273.00;5045139;28;20059;-55
2022/03/29 07:34:17;;;;;;;31.98;24.63;;;;;;;9.09;100.00;100276.66;5044732;28;20024;-56
2022/03/29 07:36:43;;;;;;;36.38;24.73;;;;;;;9.23;100.00;100270.78;5044657;28;20031;-54
2022/03/29 07:39:09;;;;;;;32.17;26.17;;;;;;;9.34;100.00;100275.53;5045153;28;20027;-55
2022/03/29 07:41:34;;;;;;;34.60;23.98;;;;;;;9.50;100.00;100272.09;5044734;28;20908;-55
2022/03/29 07:44:02;;;;;;;37.10;26.00;;;;;;;9.64;100.00;100274.91;5044701;28;20047;-56
2022/03/29 07:46:27;;;;;;;37.42;25.95;;;;;;;9.80;100.00;100275.00;5045235;28;20052;-55
2022/03/29 07:48:53;;;;;;;30.17;24.25;;;;;;;9.87;100.00;100268.53;5045704;28;20866;-55
2022/03/29 07:51:18;;;;;;;30.60;24.80;;;;;;;9.93;100.00;100276.13;5045717;28;20032;-55
2022/03/29 07:53:45;;;;;;;30.92;24.90;;;;;;;9.94;100.00;100272.56;5044163;28;20055;-54
2022/03/29 07:56:11;;;;;;;32.95;25.33;;;;;;;10.00;100.00;100271.44;5045895;28;20055;-55
2022/03/29 07:58:36;;;;;;;33.38;25.35;;;;;;;10.03;100.00;100272.13;5044387;28;20038;-56
2022/03/29 08:01:02;;;;;;;32.42;23.67;;;;;;;10.05;100.00;100254.50;5044192;28;20039;-55
2022/03/29 08:03:32;;;;;;;45.35;25.83;;;;;;;10.17;100.00;100263.59;5029262;28;20090;-54
2022/03/29 08:05:58;;;;;;;36.97;25.70;;;;;;;10.12;100.00;100234.91;5045412;28;20039;-56
2022/03/29 08:08:24;;;;;;;33.92;24.75;;;;;;;10.33;100.00;100261.88;5045456;28;20024;-55
2022/03/29 08:10:50;;;;;;;38.58;25.10;;;;;;;10.20;100.00;100240.66;5047230;28;20877;-55
2022/03/29 08:13:15;;;;;;;36.60;25.83;;;;;;;10.29;100.00;100248.97;5044316;28;20041;-55
2022/03/29 08:15:43;;;;;;;31.88;25.45;;;;;;;10.44;100.00;100256.06;5045247;28;20131;-55
2022/03/29 08:18:09;;;;;;;32.67;23.15;;;;;;;10.20;100.00;100217.03;5028277;28;21011;-55
2022/03/29 08:20:35;;;;;;;35.45;25.95;;;;;;;10.42;100.00;100250.03;5045198;28;20028;-55
2022/03/29 08:23:01;;;;;;;35.22;26.25;;;;;;;10.51;100.00;100266.16;5045680;28;20043;-54
2022/03/29 08:25:29;;;;;;;36.58;26.00;;;;;;;10.54;100.00;100262.53;5044689;28;20024;-55
2022/03/29 08:27:56;;;;;;;33.55;24.63;;;;;;;10.52;100.00;100254.72;5045671;28;20032;-55
2022/03/29 08:30:22;;;;;;;29.90;25.38;;;;;;;10.55;100.00;100253.72;5044432;28;20051;-55
2022/03/29 08:32:47;;;;;;;36.50;24.92;;;;;;;10.58;100.00;100243.88;5046718;28;20028;-54
2022/03/29 08:35:13;;;;;;;29.42;23.83;;;;;;;10.50;100.00;100235.59;5047846;28;20874;-55
2022/03/29 08:37:40;;;;;;;32.33;23.95;;;;;;;10.64;100.00;100253.25;5051631;28;20904;-55
2022/03/29 08:40:09;;;;;;;33.38;25.17;;;;;;;10.68;100.00;100249.50;5049420;28;20024;-56
2022/03/29 08:42:34;;;;;;;32.47;25.63;;;;;;;10.67;100.00;100239.94;5033783;28;20086;-55
2022/03/29 08:45:05;;;;;;;28.67;25.08;;;;;;;10.86;100.00;100243.28;5048839;28;20024;-55
2022/03/29 08:47:31;;;;;;;29.98;23.75;;;;;;;11.07;100.00;100241.28;5048210;28;20043;-56
2022/03/29 08:49:57;;;;;;;32.92;24.50;;;;;;;11.09;100.00;100215.72;5048421;28;20880;-54
2022/03/29 08:52:22;;;;;;;30.92;23.60;;;;;;;11.28;100.00;100233.06;5030820;28;20032;-55
2022/03/29 08:54:49;;;;;;;28.63;23.73;;;;;;;11.29;100.00;100234.75;5031997;28;20023;-56
2022/03/29 08:57:14;;;;;;;30.15;24.75;;;;;;;11.18;100.00;100218.72;5048674;28;20084;-56
2022/03/29 08:59:41;;;;;;;34.67;24.15;;;;;;;11.15;100.00;100229.38;5030727;28;20020;-55
2022/03/29 09:02:18;;;;;;;32.75;24.90;;;;;;;11.11;100.00;100230.50;5048039;28;20055;-55
2022/03/29 09:04:44;;;;;;;37.60;23.58;;;;;;;11.04;100.00;100220.41;5049187;28;20043;-56
2022/03/29 09:07:10;;;;;;;30.55;24.50;;;;;;;11.14;100.00;100238.22;5032043;28;20035;-55
2022/03/29 09:09:37;;;;;;;30.48;24.17;;;;;;;11.24;100.00;100233.31;5048246;28;20024;-56
2022/03/29 09:12:15;;;;;;;34.47;24.20;;;;;;;11.37;100.00;100229.06;5047562;28;20040;-55
2022/03/29 09:14:57;;;;;;;34.30;25.17;;;;;;;11.47;100.00;100224.13;5047144;28;20028;-52
2022/03/29 09:17:36;;;;;;;34.60;24.70;;;;;;;11.61;100.00;100216.28;5046067;28;20035;-55
2022/03/29 09:20:06;;;;;;;31.70;23.20;;;;;;;11.82;100.00;100209.81;5045903;28;20143;-55
2022/03/29 09:22:40;;;;;;;28.50;23.33;;;;;;;11.96;100.00;100204.63;5047220;28;20869;-55
2022/03/29 09:25:07;;;;;;;33.70;23.98;;;;;;;12.05;100.00;100211.97;5049097;28;20032;-55
2022/03/29 09:27:56;;;;;;;37.45;24.10;;;;;;;12.06;100.00;100203.13;5028959;28;20885;-55
2022/03/29 09:30:23;;;;;;;29.33;22.67;;;;;;;12.03;100.00;100208.53;5048760;28;20024;-55
2022/03/29 09:32:52;;;;;;;36.95;24.25;;;;;;;12.06;100.00;100199.63;5046123;28;20909;-55
2022/03/29 09:35:18;;;;;;;31.58;24.00;;;;;;;11.95;100.00;100168.69;5044767;28;20897;-55
2022/03/29 09:37:45;;;;;;;30.75;24.73;;;;;;;12.14;100.00;100200.88;5044731;28;20024;-55
2022/03/29 09:40:12;;;;;;;33.90;22.42;;;;;;;12.23;100.00;100197.66;5047731;28;20133;-55
2022/03/29 09:42:39;;;;;;;33.13;23.77;;;;;;;12.44;100.00;100192.03;5047670;28;20032;-56
2022/03/29 09:45:05;;;;;;;35.15;25.17;;;;;;;12.73;100.00;100188.47;5028688;28;20927;-56
2022/03/29 09:47:31;;;;;;;39.97;25.25;;;;;;;12.99;100.00;100185.03;5046334;28;20028;-54
2022/03/29 09:49:58;;;;;;;32.67;24.85;;;;;;;13.22;100.00;100179.16;5046675;28;20058;-55
2022/03/29 09:52:26;;;;;;;25.92;23.20;;;;;;;13.29;100.00;100164.63;5047876;28;20968;-54
2022/03/29 09:55:21;;;;;;;27.65;24.75;;;;;;;13.61;100.00;100177.53;5029091;28;20032;-55
2022/03/29 09:57:53;;;;;;;29.83;23.73;;;;;;;13.71;100.00;100181.25;5027776;28;20032;-54
2022/03/29 10:00:25;;;;;;;32.13;22.45;;;;;;;13.64;100.00;100179.97;5027064;28;20293;-54
2022/03/29 10:02:51;;;;;;;30.98;23.50;;;;;;;13.39;100.00;100121.78;5027086;28;20186;-54
2022/03/29 10:05:19;;;;;;;28.85;22.50;;;;;;;13.66;100.00;100170.13;5027259;28;20024;-55
2022/03/29 10:07:50;;;;;;;34.10;22.98;;;;;;;13.71;100.00;100162.75;5027155;28;20028;-55
2022/03/29 10:10:16;;;;;;;30.90;24.05;;;;;;;13.83;100.00;100170.69;5040988;28;20039;-53
2022/03/29 10:12:41;;;;;;;31.25;23.60;;;;;;;13.87;100.00;100162.56;5029490;28;20101;-55
2022/03/29 10:15:07;;;;;;;33.22;22.73;;;;;;;13.81;100.00;100155.91;5045950;28;20027;-55
2022/03/29 10:17:33;;;;;;;39.40;23.02;;;;;;;13.77;100.00;100155.28;5045024;28;20097;-54
2022/03/29 10:19:59;;;;;;;32.55;22.83;;;;;;;13.81;100.00;100154.13;5046167;28;20137;-55
2022/03/29 10:22:25;;;;;;;32.25;24.17;;;;;;;13.80;100.00;100148.94;5044984;28;20020;-55
2022/03/29 10:24:50;;;;;;;32.13;24.45;;;;;;;13.69;100.00;100148.78;5044777;28;20142;-56
2022/03/29 10:27:18;;;;;;;32.13;24.80;;;;;;;13.56;100.00;100138.22;4995437;28;1495402;-55
2022/03/29 10:29:43;;;;;;;35.67;23.88;;;;;;;13.56;100.00;100132.09;5029886;28;20020;-57
2022/03/29 10:32:10;;;;;;;26.23;23.40;;;;;;;13.69;100.00;100130.31;5030607;28;20964;-55
2022/03/29 10:34:42;;;;;;;26.35;22.08;;;;;;;13.82;100.00;100139.94;5031952;28;20023;-54
2022/03/29 10:37:07;;;;;;;30.60;23.65;;;;;;;14.04;100.00;100130.56;5030945;28;20035;-55
2022/03/29 10:39:45;;;;;;;30.83;23.27;;;;;;;14.27;100.00;100135.97;5047865;28;20036;-55
2022/03/29 10:42:46;;;;;;;36.58;24.30;;;;;;;14.51;100.00;100128.13;5048064;28;20042;-55
2022/03/29 10:45:24;;;;;;;31.50;23.92;;;;;;;14.74;100.00;100129.13;5043185;28;21289;-54
2022/03/29 10:47:59;;;;;;;32.85;24.45;;;;;;;14.83;100.00;100117.91;5029208;28;20024;-53
2022/03/29 10:50:43;;;;;;;;;;;;;;;14.86;100.00;100122.97;5047319;28;20724;-54
2022/03/29 10:53:21;;;;;;;27.05;23.52;;;;;;;14.62;100.00;100079.78;5041718;28;19908;-54
2022/03/29 10:55:47;;;;;;;34.35;23.80;;;;;;;14.96;100.00;100117.88;5047161;28;20035;-54
2022/03/29 10:58:13;;;;;;;36.13;25.33;;;;;;;15.09;100.00;100114.22;5028983;28;20028;-54
2022/03/29 11:00:44;;;;;;;34.13;26.60;;;;;;;15.14;100.00;100104.13;5047154;28;20016;-54
2022/03/29 11:03:16;;;;;;;35.20;27.15;;;;;;;15.33;100.00;100098.31;5048195;28;20024;-55
2022/03/29 11:06:10;;;;;;;34.00;26.58;;;;;;;15.37;100.00;100091.00;5048207;28;20035;-55
2022/03/29 11:09:05;;;;;;;37.50;29.20;;;;;;;15.23;100.00;100098.16;5047778;28;20031;-56
2022/03/29 11:11:40;;;;;;;;;;;;;;;15.35;100.00;100091.94;5040345;28;20046;-55
2022/03/29 11:14:37;;;;;;;40.15;31.48;;;;;;;15.50;100.00;100087.34;5047359;28;19912;-54
2022/03/29 11:17:11;;;;;;;43.33;31.98;;;;;;;15.66;100.00;100092.31;5046627;28;20028;-54